Time;durP1;ratioP1;P1;durP2;ratioP2;P2;SDS_P1;SDS_P2;PMS_P1;PMS_P2;Temp;Humidity;BMP_temperature;BMP_pressure;BME280_temperature;BME280_humidity;BME280_pressure;Samples;Min_cycle;Max_cycle;Signal;HPM_P1;HPM_P2
2023/01/07 00:01:42;;;;;;;6.25;2.47;;;;;;;;;;4994230;28;20176;-77
2023/01/07 00:04:10;;;;;;;5.47;2.95;;;;;;;;;;4993982;28;20060;-77
2023/01/07 00:06:36;;;;;;;5.05;2.60;;;;;;;;;;5011675;28;20072;-77
2023/01/07 00:09:02;;;;;;;13.02;3.55;;;;;;;;;;5011454;28;20021;-77
2023/01/07 00:11:28;;;;;;;6.07;2.60;;;;;;;;;;4993988;28;20354;-77
2023/01/07 00:13:54;;;;;;;7.05;3.03;;;;;;;;;;4993843;28;20027;-77
2023/01/07 00:16:20;;;;;;;6.80;2.67;;;;;;;;;;5010112;28;20052;-77
2023/01/07 00:18:46;;;;;;;6.97;2.90;;;;;;;;;;5011491;28;20033;-77
2023/01/07 00:21:13;;;;;;;7.82;2.97;;;;;;;;;;5011518;28;20109;-77
2023/01/07 00:23:40;;;;;;;5.20;3.05;;;;;;;;;;4993347;28;20030;-77
2023/01/07 00:26:09;;;;;;;4.97;2.75;;;;;;;;;;4993359;28;20026;-77
2023/01/07 00:28:36;;;;;;;5.78;2.65;;;;;;;;;;4993407;28;20172;-77
2023/01/07 00:31:06;;;;;;;5.93;2.90;;;;;;;;;;5011232;28;20405;-77
2023/01/07 00:33:34;;;;;;;6.32;3.17;;;;;;;;;;5010125;28;20385;-77
2023/01/07 00:36:00;;;;;;;5.80;3.00;;;;;;;;;;5011334;28;20545;-77
2023/01/07 00:38:25;;;;;;;9.27;3.17;;;;;;;;;;4993336;28;20006;-77
2023/01/07 00:40:50;;;;;;;10.55;3.45;;;;;;;;;;5011377;28;20018;-77
2023/01/07 00:43:15;;;;;;;6.75;2.53;;;;;;;;;;4992984;28;20026;-77
2023/01/07 00:45:40;;;;;;;9.10;3.03;;;;;;;;;;4986902;28;20026;-77
2023/01/07 00:48:06;;;;;;;5.63;3.03;;;;;;;;;;4993402;28;20439;-77
2023/01/07 00:50:32;;;;;;;4.90;2.90;;;;;;;;;;4992476;28;20053;-77
2023/01/07 00:52:57;;;;;;;6.28;2.42;;;;;;;;;;5011037;28;20064;-77
2023/01/07 00:55:23;;;;;;;8.15;2.88;;;;;;;;;;5010981;28;20097;-77
2023/01/07 00:57:48;;;;;;;6.78;2.97;;;;;;;;;;5010773;28;20026;-76
2023/01/07 01:00:14;;;;;;;7.40;2.83;;;;;;;;;;5014055;28;20021;-76
2023/01/07 01:02:40;;;;;;;5.20;2.60;;;;;;;;;;4996617;28;20109;-76
2023/01/07 01:05:06;;;;;;;7.00;2.45;;;;;;;;;;5014223;28;20472;-76
2023/01/07 01:07:32;;;;;;;7.13;3.15;;;;;;;;;;5014559;28;20076;-76
2023/01/07 01:09:57;;;;;;;6.18;3.10;;;;;;;;;;5012813;28;20022;-76
2023/01/07 01:12:22;;;;;;;9.38;3.22;;;;;;;;;;5014525;28;20568;-76
2023/01/07 01:14:47;;;;;;;4.82;2.75;;;;;;;;;;5014146;28;20014;-75
2023/01/07 01:17:12;;;;;;;14.02;2.95;;;;;;;;;;5014374;28;20029;-76
2023/01/07 01:19:38;;;;;;;9.63;2.63;;;;;;;;;;5014247;28;20025;-76
2023/01/07 01:22:03;;;;;;;5.07;2.75;;;;;;;;;;5014401;28;20022;-76
2023/01/07 01:24:28;;;;;;;9.07;3.00;;;;;;;;;;4996304;28;20018;-76
2023/01/07 01:26:53;;;;;;;9.57;3.15;;;;;;;;;;5013298;28;20022;-76
2023/01/07 01:29:19;;;;;;;9.80;2.95;;;;;;;;;;4995203;28;20453;-76
2023/01/07 01:31:44;;;;;;;3.97;2.60;;;;;;;;;;5013869;28;20077;-76
2023/01/07 01:34:09;;;;;;;8.43;2.75;;;;;;;;;;4996077;28;20084;-76
2023/01/07 01:36:34;;;;;;;4.35;2.42;;;;;;;;;;5013451;28;20088;-76
2023/01/07 01:38:59;;;;;;;5.47;2.70;;;;;;;;;;5013599;28;20013;-76
2023/01/07 01:41:25;;;;;;;4.82;2.47;;;;;;;;;;5013861;28;20029;-76
2023/01/07 01:43:50;;;;;;;5.25;2.70;;;;;;;;;;5013058;28;20021;-76
2023/01/07 01:46:22;;;;;;;5.78;2.50;;;;;;;;;;5004719;28;20115;-76
2023/01/07 01:49:01;;;;;;;5.38;2.42;;;;;;;;;;4996145;28;20042;-76
2023/01/07 01:51:28;;;;;;;5.53;2.55;;;;;;;;;;5013803;28;20026;-76
2023/01/07 01:53:54;;;;;;;3.22;2.22;;;;;;;;;;4995824;28;20396;-76
2023/01/07 01:56:21;;;;;;;6.55;2.47;;;;;;;;;;5013794;28;20120;-76
2023/01/07 01:58:52;;;;;;;6.10;2.30;;;;;;;;;;5013440;28;20152;-76
2023/01/07 02:01:17;;;;;;;3.20;2.22;;;;;;;;;;5013742;28;20527;-76
2023/01/07 02:03:43;;;;;;;6.07;2.85;;;;;;;;;;4995394;28;20053;-76
2023/01/07 02:06:11;;;;;;;4.72;2.35;;;;;;;;;;5013092;28;20032;-76
2023/01/07 02:08:36;;;;;;;4.07;2.33;;;;;;;;;;5013364;28;20049;-76
2023/01/07 02:11:09;;;;;;;3.85;2.40;;;;;;;;;;5012759;28;20413;-76
2023/01/07 02:13:53;;;;;;;5.32;1.90;;;;;;;;;;5013331;28;20422;-76
2023/01/07 02:16:21;;;;;;;4.75;2.40;;;;;;;;;;4995256;28;20021;-76
2023/01/07 02:18:56;;;;;;;4.47;2.10;;;;;;;;;;5010578;28;20046;-76
2023/01/07 02:21:21;;;;;;;9.05;2.70;;;;;;;;;;4995554;28;20527;-76
2023/01/07 02:24:03;;;;;;;7.45;1.88;;;;;;;;;;4995751;28;20022;-76
2023/01/07 02:26:40;;;;;;;3.22;2.17;;;;;;;;;;5012980;28;20017;-76
2023/01/07 02:29:08;;;;;;;5.05;2.45;;;;;;;;;;4995089;28;20025;-76
2023/01/07 02:31:42;;;;;;;4.95;2.20;;;;;;;;;;5013218;28;20080;-76
2023/01/07 02:34:17;;;;;;;6.25;2.20;;;;;;;;;;4994515;28;20032;-76
2023/01/07 02:37:08;;;;;;;7.88;2.33;;;;;;;;;;5012737;28;20436;-76
2023/01/07 02:39:49;;;;;;;7.40;2.15;;;;;;;;;;4993829;28;20041;-75
2023/01/07 02:42:17;;;;;;;5.28;2.03;;;;;;;;;;4994759;28;20049;-76
2023/01/07 02:44:59;;;;;;;4.82;2.50;;;;;;;;;;5006399;28;20072;-76
2023/01/07 02:47:28;;;;;;;6.50;2.72;;;;;;;;;;5000471;28;20401;-76
2023/01/07 02:49:53;;;;;;;4.30;1.90;;;;;;;;;;5011039;28;20083;-76
2023/01/07 02:52:22;;;;;;;5.10;2.45;;;;;;;;;;4995134;28;20010;-76
2023/01/07 02:54:50;;;;;;;4.18;2.28;;;;;;;;;;5012507;28;20306;-76
2023/01/07 02:57:15;;;;;;;4.15;2.00;;;;;;;;;;5011042;28;20033;-76
2023/01/07 02:59:56;;;;;;;6.00;2.28;;;;;;;;;;4994374;28;20410;-76
2023/01/07 03:02:27;;;;;;;4.65;1.90;;;;;;;;;;5010437;28;20029;-76
2023/01/07 03:04:59;;;;;;;6.82;2.10;;;;;;;;;;5012004;28;20037;-76
2023/01/07 03:07:43;;;;;;;7.03;2.30;;;;;;;;;;5011151;28;20035;-76
2023/01/07 03:10:17;;;;;;;6.53;2.47;;;;;;;;;;5012241;28;20010;-76
2023/01/07 03:12:42;;;;;;;7.13;2.38;;;;;;;;;;5012129;28;20369;-76
2023/01/07 03:15:11;;;;;;;7.43;2.20;;;;;;;;;;4994541;28;20026;-75
2023/01/07 03:17:39;;;;;;;4.68;2.15;;;;;;;;;;5012270;28;20116;-76
2023/01/07 03:20:05;;;;;;;6.95;2.28;;;;;;;;;;5011897;28;20033;-76
2023/01/07 03:22:31;;;;;;;5.68;2.95;;;;;;;;;;5009845;28;20140;-76
2023/01/07 03:24:57;;;;;;;5.18;2.28;;;;;;;;;;5011864;28;20032;-76
2023/01/07 03:27:24;;;;;;;4.28;2.33;;;;;;;;;;5011860;28;20033;-76
2023/01/07 03:29:51;;;;;;;5.70;2.30;;;;;;;;;;4994003;28;20025;-76
2023/01/07 03:32:28;;;;;;;5.00;2.03;;;;;;;;;;5011801;28;20013;-76
2023/01/07 03:34:53;;;;;;;4.57;1.85;;;;;;;;;;5011971;28;20163;-76
2023/01/07 03:37:22;;;;;;;3.17;2.00;;;;;;;;;;4993885;28;20124;-76
2023/01/07 03:39:48;;;;;;;5.22;2.38;;;;;;;;;;5010792;28;20026;-76
2023/01/07 03:44:58;;;;;;;3.15;2.00;;;;;;;;;;5011619;28;20033;-76
2023/01/07 03:47:24;;;;;;;6.13;1.80;;;;;;;;;;4993845;28;20055;-76
2023/01/07 03:49:49;;;;;;;4.15;2.15;;;;;;;;;;4993562;28;20462;-76
2023/01/07 03:52:14;;;;;;;6.78;2.03;;;;;;;;;;5012099;28;20145;-76
2023/01/07 03:54:39;;;;;;;6.05;2.30;;;;;;;;;;5011719;28;20465;-76
2023/01/07 03:57:04;;;;;;;9.10;2.30;;;;;;;;;;5010889;28;20025;-76
2023/01/07 03:59:30;;;;;;;4.68;2.15;;;;;;;;;;4993408;28;20091;-76
2023/01/07 04:01:55;;;;;;;4.38;1.92;;;;;;;;;;5011800;28;20408;-76
2023/01/07 04:04:20;;;;;;;6.18;2.05;;;;;;;;;;5011759;28;20030;-76
2023/01/07 04:06:45;;;;;;;2.97;1.92;;;;;;;;;;4993893;28;20386;-76
2023/01/07 04:09:11;;;;;;;3.40;1.90;;;;;;;;;;5011410;28;20022;-76
2023/01/07 04:11:36;;;;;;;7.10;1.70;;;;;;;;;;5011666;28;20026;-76
2023/01/07 04:14:02;;;;;;;4.25;1.77;;;;;;;;;;5011691;28;20018;-76
2023/01/07 04:16:27;;;;;;;4.03;1.73;;;;;;;;;;5010908;28;20105;-75
2023/01/07 04:18:52;;;;;;;5.88;2.10;;;;;;;;;;5011062;28;20048;-76
2023/01/07 04:21:17;;;;;;;4.43;1.92;;;;;;;;;;4994126;28;20022;-76
2023/01/07 04:23:43;;;;;;;3.42;1.80;;;;;;;;;;4993767;28;20029;-76
2023/01/07 04:26:08;;;;;;;3.13;1.63;;;;;;;;;;4993884;28;20049;-76
2023/01/07 04:28:33;;;;;;;4.60;1.58;;;;;;;;;;5011003;28;20021;-76
2023/01/07 04:30:58;;;;;;;6.38;2.00;;;;;;;;;;5011226;28;20370;-76
2023/01/07 04:33:23;;;;;;;2.88;1.58;;;;;;;;;;4993785;28;20025;-76
2023/01/07 04:35:49;;;;;;;6.85;3.58;;;;;;;;;;5015043;28;20040;-76
2023/01/07 04:38:14;;;;;;;2.33;1.35;;;;;;;;;;5015455;28;20485;-76
2023/01/07 04:40:39;;;;;;;5.55;1.83;;;;;;;;;;4997145;28;20038;-75
2023/01/07 04:43:04;;;;;;;3.03;1.60;;;;;;;;;;4997395;28;20109;-76
2023/01/07 04:45:29;;;;;;;2.20;1.30;;;;;;;;;;5002929;28;20487;-76
2023/01/07 04:47:55;;;;;;;2.75;1.40;;;;;;;;;;5014797;28;20072;-76
2023/01/07 04:50:21;;;;;;;7.57;1.70;;;;;;;;;;5014845;28;20022;-76
2023/01/07 04:52:46;;;;;;;3.28;1.38;;;;;;;;;;5014149;28;20029;-76
2023/01/07 04:55:11;;;;;;;3.33;1.40;;;;;;;;;;5014868;28;20113;-76
2023/01/07 04:57:37;;;;;;;2.50;1.25;;;;;;;;;;5013786;28;20479;-75
2023/01/07 05:00:02;;;;;;;2.45;1.40;;;;;;;;;;5014594;28;20401;-76
2023/01/07 05:02:28;;;;;;;6.53;0.93;;;;;;;;;;4997401;28;20464;-76
2023/01/07 05:04:53;;;;;;;1.70;1.10;;;;;;;;;;4996887;28;20341;-76
2023/01/07 05:07:18;;;;;;;2.85;1.02;;;;;;;;;;4997160;28;20029;-76
2023/01/07 05:09:43;;;;;;;3.13;1.20;;;;;;;;;;4996938;28;20112;-76
2023/01/07 05:12:08;;;;;;;2.88;1.40;;;;;;;;;;5014701;28;20030;-76
2023/01/07 05:14:33;;;;;;;2.03;1.15;;;;;;;;;;5013735;28;20397;-76
2023/01/07 05:16:59;;;;;;;1.40;0.98;;;;;;;;;;4996617;28;20021;-76
2023/01/07 05:19:24;;;;;;;1.17;0.80;;;;;;;;;;5014117;28;20083;-76
2023/01/07 05:21:49;;;;;;;3.80;0.93;;;;;;;;;;4996525;28;20448;-76
2023/01/07 05:24:15;;;;;;;2.35;1.15;;;;;;;;;;5014169;28;20067;-76
2023/01/07 05:26:40;;;;;;;1.48;1.00;;;;;;;;;;4996562;28;20171;-76
2023/01/07 05:29:05;;;;;;;1.83;0.98;;;;;;;;;;4996111;28;20105;-76
2023/01/07 05:31:30;;;;;;;1.77;0.88;;;;;;;;;;4995676;28;20136;-76
2023/01/07 05:33:56;;;;;;;1.10;0.80;;;;;;;;;;5014054;28;20025;-76
2023/01/07 05:36:21;;;;;;;3.28;1.35;;;;;;;;;;4996438;28;20048;-76
2023/01/07 05:38:46;;;;;;;2.78;1.17;;;;;;;;;;5013657;28;20480;-76
2023/01/07 05:41:11;;;;;;;1.92;1.10;;;;;;;;;;5014061;28;20018;-76
2023/01/07 05:43:36;;;;;;;3.20;1.20;;;;;;;;;;5013735;28;20022;-76
2023/01/07 05:46:02;;;;;;;1.52;0.90;;;;;;;;;;5000525;28;20095;-76
2023/01/07 05:48:27;;;;;;;1.38;0.90;;;;;;;;;;5013795;28;20014;-76
2023/01/07 05:50:52;;;;;;;2.40;1.00;;;;;;;;;;5013116;28;20580;-76
2023/01/07 05:53:17;;;;;;;2.58;1.10;;;;;;;;;;5013700;28;20022;-76
2023/01/07 05:55:43;;;;;;;3.10;1.00;;;;;;;;;;4995940;28;20421;-76
2023/01/07 05:58:08;;;;;;;1.67;1.02;;;;;;;;;;4995799;28;20041;-76
2023/01/07 06:00:35;;;;;;;1.50;1.00;;;;;;;;;;5013995;28;20022;-76
2023/01/07 06:03:00;;;;;;;1.75;0.80;;;;;;;;;;4996095;28;20105;-76
2023/01/07 06:05:25;;;;;;;1.90;1.10;;;;;;;;;;5013603;28;20045;-76
2023/01/07 06:07:50;;;;;;;3.88;1.30;;;;;;;;;;5011935;28;20032;-76
2023/01/07 06:10:16;;;;;;;2.33;1.33;;;;;;;;;;5013253;28;20101;-76
2023/01/07 06:12:41;;;;;;;4.53;1.15;;;;;;;;;;5013436;28;20430;-76
2023/01/07 06:15:06;;;;;;;3.03;1.10;;;;;;;;;;5012591;28;20513;-76
2023/01/07 06:17:32;;;;;;;1.40;1.05;;;;;;;;;;4995708;28;20500;-76
2023/01/07 06:19:57;;;;;;;1.05;0.80;;;;;;;;;;5013359;28;20021;-76
2023/01/07 06:22:22;;;;;;;1.65;1.00;;;;;;;;;;4995371;28;20053;-76
2023/01/07 06:24:47;;;;;;;2.70;0.93;;;;;;;;;;5012157;28;20531;-76
2023/01/07 06:27:13;;;;;;;3.45;1.08;;;;;;;;;;5013095;28;20026;-76
2023/01/07 06:29:38;;;;;;;1.90;0.90;;;;;;;;;;5013159;28;20022;-76
2023/01/07 06:32:03;;;;;;;2.33;1.20;;;;;;;;;;4995429;28;20029;-76
2023/01/07 06:34:28;;;;;;;1.98;0.95;;;;;;;;;;4995167;28;20021;-76
2023/01/07 06:36:54;;;;;;;5.18;1.30;;;;;;;;;;5013234;28;20475;-76
2023/01/07 06:39:19;;;;;;;1.98;0.75;;;;;;;;;;4995092;28;20028;-76
2023/01/07 06:41:45;;;;;;;1.38;1.00;;;;;;;;;;5012243;28;20484;-76
2023/01/07 06:44:10;;;;;;;1.48;0.90;;;;;;;;;;4994757;28;20110;-76
2023/01/07 06:46:35;;;;;;;2.50;0.95;;;;;;;;;;5007734;28;20034;-76
2023/01/07 06:49:00;;;;;;;1.80;1.00;;;;;;;;;;5007708;28;20014;-76
2023/01/07 06:51:25;;;;;;;1.83;0.88;;;;;;;;;;5013081;28;20026;-75
2023/01/07 06:53:51;;;;;;;1.73;0.80;;;;;;;;;;4993430;28;20480;-76
2023/01/07 06:56:16;;;;;;;1.60;0.90;;;;;;;;;;4990186;28;20030;-76
2023/01/07 06:58:41;;;;;;;4.07;1.05;;;;;;;;;;4998888;28;20302;-76
2023/01/07 07:01:07;;;;;;;6.18;1.15;;;;;;;;;;5008847;28;20053;-76
2023/01/07 07:03:32;;;;;;;2.00;1.00;;;;;;;;;;4997327;28;20429;-76
2023/01/07 07:05:57;;;;;;;1.55;0.93;;;;;;;;;;5011212;28;20041;-76
2023/01/07 07:08:23;;;;;;;1.80;1.00;;;;;;;;;;5012410;28;20377;-77
2023/01/07 07:10:51;;;;;;;2.00;1.20;;;;;;;;;;4994346;28;20493;-76
2023/01/07 07:13:16;;;;;;;2.17;1.17;;;;;;;;;;5010802;28;20025;-77
2023/01/07 07:15:42;;;;;;;4.60;1.15;;;;;;;;;;5012373;28;20484;-77
2023/01/07 07:18:07;;;;;;;1.55;1.00;;;;;;;;;;4994015;28;20034;-77
2023/01/07 07:20:32;;;;;;;1.25;0.65;;;;;;;;;;5011755;28;20038;-77
2023/01/07 07:22:57;;;;;;;6.85;1.10;;;;;;;;;;5005273;28;20055;-77
2023/01/07 07:25:23;;;;;;;3.95;0.98;;;;;;;;;;4996067;28;20135;-77
2023/01/07 07:27:48;;;;;;;1.83;0.80;;;;;;;;;;5009436;28;20033;-77
2023/01/07 07:30:14;;;;;;;1.60;1.00;;;;;;;;;;5000428;28;20493;-77
2023/01/07 07:32:39;;;;;;;3.75;1.08;;;;;;;;;;5000894;28;20469;-77
2023/01/07 07:35:05;;;;;;;3.50;1.13;;;;;;;;;;4993420;28;20022;-77
2023/01/07 07:37:30;;;;;;;2.97;1.00;;;;;;;;;;5011086;28;20049;-77
2023/01/07 07:39:55;;;;;;;2.45;0.98;;;;;;;;;;5011505;28;20030;-77
2023/01/07 07:42:20;;;;;;;3.13;0.90;;;;;;;;;;4996950;28;20140;-77
2023/01/07 07:44:45;;;;;;;5.32;1.10;;;;;;;;;;4997565;28;20372;-76
2023/01/07 07:47:11;;;;;;;1.40;0.93;;;;;;;;;;5004282;28;20512;-77
2023/01/07 07:49:36;;;;;;;2.22;1.08;;;;;;;;;;4996080;28;20018;-77
2023/01/07 07:52:02;;;;;;;1.92;0.90;;;;;;;;;;4997205;28;20025;-77
2023/01/07 07:54:27;;;;;;;1.63;1.02;;;;;;;;;;5011643;28;20060;-77
2023/01/07 07:56:52;;;;;;;2.70;1.10;;;;;;;;;;5011245;28;20444;-76
2023/01/07 07:59:17;;;;;;;2.35;1.25;;;;;;;;;;4996863;28;20083;-77
2023/01/07 08:01:42;;;;;;;1.77;1.10;;;;;;;;;;4990860;28;20079;-77
2023/01/07 08:04:08;;;;;;;1.08;0.70;;;;;;;;;;5008464;28;20022;-77
2023/01/07 08:06:33;;;;;;;2.58;1.00;;;;;;;;;;5008217;28;20519;-77
2023/01/07 08:08:58;;;;;;;3.90;1.50;;;;;;;;;;5007412;28;20022;-77
2023/01/07 08:11:24;;;;;;;2.83;0.90;;;;;;;;;;5012295;28;20022;-77
2023/01/07 08:13:49;;;;;;;2.13;1.10;;;;;;;;;;5004626;28;20026;-77
2023/01/07 08:16:14;;;;;;;3.28;1.05;;;;;;;;;;5015176;28;20033;-77
2023/01/07 08:18:39;;;;;;;3.50;1.20;;;;;;;;;;4996992;28;21109;-76
2023/01/07 08:21:05;;;;;;;1.10;0.88;;;;;;;;;;5006072;28;20049;-76
2023/01/07 08:23:30;;;;;;;2.90;0.77;;;;;;;;;;5015438;28;20064;-76
2023/01/07 08:25:59;;;;;;;2.63;1.02;;;;;;;;;;4996756;28;20021;-77
2023/01/07 08:28:24;;;;;;;1.80;0.85;;;;;;;;;;5015054;28;20022;-77
2023/01/07 08:30:49;;;;;;;1.77;1.00;;;;;;;;;;5014513;28;20365;-76
2023/01/07 08:33:14;;;;;;;1.15;0.93;;;;;;;;;;5014923;28;20026;-76
2023/01/07 08:35:40;;;;;;;1.85;1.20;;;;;;;;;;5015000;28;20109;-76
2023/01/07 08:38:07;;;;;;;11.43;1.13;;;;;;;;;;5015011;28;20416;-76
2023/01/07 08:40:32;;;;;;;1.38;1.00;;;;;;;;;;4997404;28;20025;-77
2023/01/07 08:42:58;;;;;;;3.72;1.25;;;;;;;;;;5014198;28;20152;-77
2023/01/07 08:45:24;;;;;;;1.55;1.10;;;;;;;;;;5003393;28;20125;-77
2023/01/07 08:47:49;;;;;;;1.92;1.20;;;;;;;;;;4997178;28;20531;-77
2023/01/07 08:50:14;;;;;;;1.95;1.10;;;;;;;;;;5014753;28;20044;-77
2023/01/07 08:52:39;;;;;;;2.00;1.10;;;;;;;;;;5014965;28;20022;-77
2023/01/07 08:55:05;;;;;;;1.38;0.98;;;;;;;;;;5014031;28;20018;-77
2023/01/07 08:57:30;;;;;;;1.98;1.30;;;;;;;;;;5014768;28;20485;-77
2023/01/07 08:59:55;;;;;;;2.15;1.10;;;;;;;;;;4996474;28;20026;-77
2023/01/07 09:02:21;;;;;;;8.30;1.38;;;;;;;;;;4997128;28;20064;-77
2023/01/07 09:04:46;;;;;;;2.80;1.20;;;;;;;;;;5014118;28;20105;-77
2023/01/07 09:07:11;;;;;;;2.05;0.95;;;;;;;;;;5014660;28;20021;-77
2023/01/07 09:09:36;;;;;;;1.50;0.88;;;;;;;;;;5014506;28;20057;-77
2023/01/07 09:12:02;;;;;;;2.35;1.02;;;;;;;;;;5013813;28;20018;-77
2023/01/07 09:14:28;;;;;;;1.98;0.80;;;;;;;;;;5014386;28;20073;-77
2023/01/07 09:16:53;;;;;;;6.63;1.20;;;;;;;;;;4996632;28;20432;-76
2023/01/07 09:19:18;;;;;;;2.10;1.02;;;;;;;;;;5014176;28;20442;-77
2023/01/07 09:21:43;;;;;;;1.33;0.93;;;;;;;;;;4996664;28;20037;-77
2023/01/07 09:24:08;;;;;;;4.53;0.80;;;;;;;;;;4996702;28;20022;-76
2023/01/07 09:26:34;;;;;;;1.42;1.00;;;;;;;;;;4996882;28;20469;-76
2023/01/07 09:29:02;;;;;;;2.17;0.70;;;;;;;;;;5010837;28;20056;-77
2023/01/07 09:31:27;;;;;;;1.38;0.80;;;;;;;;;;5014148;28;20014;-76
2023/01/07 09:33:52;;;;;;;1.25;0.70;;;;;;;;;;5014113;28;20024;-77
2023/01/07 09:36:17;;;;;;;1.73;0.80;;;;;;;;;;5014113;28;20461;-77
2023/01/07 09:38:43;;;;;;;1.13;0.65;;;;;;;;;;5013918;28;20037;-76
2023/01/07 09:41:23;;;;;;;1.30;0.43;;;;;;;;;;5014241;28;20035;-76
2023/01/07 09:43:50;;;;;;;3.05;0.95;;;;;;;;;;4995274;28;20385;-77
2023/01/07 09:46:16;;;;;;;2.00;0.73;;;;;;;;;;4984180;28;20030;-76
2023/01/07 09:48:43;;;;;;;2.85;0.70;;;;;;;;;;5013906;28;20021;-77
2023/01/07 09:51:18;;;;;;;2.38;0.80;;;;;;;;;;5013862;28;20036;-76
2023/01/07 09:53:45;;;;;;;0.68;0.30;;;;;;;;;;5013632;28;20056;-77
2023/01/07 09:56:14;;;;;;;0.93;0.60;;;;;;;;;;5012694;28;20017;-76
2023/01/07 09:58:44;;;;;;;1.10;0.52;;;;;;;;;;5005364;28;20027;-76
2023/01/07 10:01:19;;;;;;;0.68;0.30;;;;;;;;;;5010073;28;20045;-76
2023/01/07 10:03:49;;;;;;;1.42;0.85;;;;;;;;;;5012693;28;20030;-76
2023/01/07 10:06:25;;;;;;;0.73;0.45;;;;;;;;;;5012564;28;20393;-77
2023/01/07 10:09:03;;;;;;;0.77;0.70;;;;;;;;;;5013213;28;20025;-76
2023/01/07 10:11:31;;;;;;;0.30;0.28;;;;;;;;;;5013303;28;20025;-76
2023/01/07 10:14:14;;;;;;;1.55;0.70;;;;;;;;;;5012802;28;20462;-76
2023/01/07 10:16:49;;;;;;;1.02;0.52;;;;;;;;;;5011883;28;20018;-76
2023/01/07 10:19:17;;;;;;;1.17;0.70;;;;;;;;;;5013288;28;20026;-76
2023/01/07 10:21:46;;;;;;;0.77;0.60;;;;;;;;;;5013399;28;20101;-76
2023/01/07 10:24:31;;;;;;;1.10;0.80;;;;;;;;;;5011932;28;20022;-76
2023/01/07 10:27:00;;;;;;;1.67;0.80;;;;;;;;;;5008250;28;20040;-77
2023/01/07 10:29:29;;;;;;;1.10;0.63;;;;;;;;;;5013114;28;20046;-76
2023/01/07 10:31:56;;;;;;;2.40;1.02;;;;;;;;;;5011699;28;20044;-76
2023/01/07 10:34:28;;;;;;;1.83;0.82;;;;;;;;;;5012562;28;20389;-76
2023/01/07 10:36:59;;;;;;;1.10;0.70;;;;;;;;;;5008069;28;20040;-76
2023/01/07 10:39:41;;;;;;;1.27;0.70;;;;;;;;;;4993998;28;20030;-76
2023/01/07 10:42:14;;;;;;;2.10;0.80;;;;;;;;;;5007671;28;20028;-76
2023/01/07 10:44:42;;;;;;;4.43;0.90;;;;;;;;;;4991292;28;20036;-76
2023/01/07 10:47:07;;;;;;;1.65;0.90;;;;;;;;;;5010442;28;20076;-76
2023/01/07 10:49:51;;;;;;;1.10;0.68;;;;;;;;;;5011991;28;20129;-77
2023/01/07 10:52:25;;;;;;;2.80;0.63;;;;;;;;;;4994899;28;20022;-77
2023/01/07 10:55:19;;;;;;;1.63;0.80;;;;;;;;;;5012933;28;20318;-77
2023/01/07 10:57:46;;;;;;;2.78;0.90;;;;;;;;;;4981955;28;20041;-76
2023/01/07 11:00:13;;;;;;;0.98;0.70;;;;;;;;;;5012427;28;20117;-76
2023/01/07 11:02:41;;;;;;;1.55;0.75;;;;;;;;;;4995165;28;20037;-76
2023/01/07 11:05:09;;;;;;;0.75;0.40;;;;;;;;;;4994417;28;20064;-77
2023/01/07 11:07:47;;;;;;;1.70;0.50;;;;;;;;;;4994547;28;20343;-77
2023/01/07 11:10:16;;;;;;;0.90;0.68;;;;;;;;;;5012412;28;20345;-77
2023/01/07 11:13:00;;;;;;;0.55;0.32;;;;;;;;;;5011554;28;20113;-77
2023/01/07 11:15:34;;;;;;;5.82;0.80;;;;;;;;;;5010298;28;20053;-76
2023/01/07 11:18:02;;;;;;;1.45;0.50;;;;;;;;;;5002422;28;20026;-77
2023/01/07 11:20:44;;;;;;;1.95;1.13;;;;;;;;;;4995442;28;20026;-77
2023/01/07 11:23:21;;;;;;;2.03;0.77;;;;;;;;;;4994572;28;20527;-76
2023/01/07 11:25:46;;;;;;;3.33;0.82;;;;;;;;;;5011485;28;20353;-77
2023/01/07 11:28:18;;;;;;;1.85;0.73;;;;;;;;;;5012331;28;20025;-76
2023/01/07 11:30:43;;;;;;;2.38;0.85;;;;;;;;;;4993806;28;20018;-77
2023/01/07 11:33:26;;;;;;;1.05;0.60;;;;;;;;;;5011008;28;20018;-76
2023/01/07 11:35:52;;;;;;;2.83;1.10;;;;;;;;;;5003961;28;20104;-77
2023/01/07 11:38:25;;;;;;;0.98;0.65;;;;;;;;;;5010493;28;20529;-77
2023/01/07 11:40:54;;;;;;;1.58;0.57;;;;;;;;;;5006531;28;20621;-77
2023/01/07 11:43:21;;;;;;;1.20;0.70;;;;;;;;;;5010107;28;20481;-77
2023/01/07 11:45:57;;;;;;;0.60;0.40;;;;;;;;;;4998136;28;20033;-77
2023/01/07 11:48:33;;;;;;;0.80;0.30;;;;;;;;;;5010186;28;20026;-77
2023/01/07 11:50:59;;;;;;;1.00;0.60;;;;;;;;;;5011154;28;20017;-76
2023/01/07 11:53:32;;;;;;;1.02;0.60;;;;;;;;;;4994110;28;20034;-77
2023/01/07 11:55:59;;;;;;;1.20;0.50;;;;;;;;;;5000011;28;20026;-76
2023/01/07 11:58:26;;;;;;;1.25;0.70;;;;;;;;;;4993834;28;20041;-76
2023/01/07 12:01:07;;;;;;;1.05;0.43;;;;;;;;;;4999369;28;20032;-77
2023/01/07 12:03:33;;;;;;;0.63;0.40;;;;;;;;;;5021065;28;20077;-77
2023/01/07 12:06:14;;;;;;;0.73;0.63;;;;;;;;;;5008925;28;20054;-77
2023/01/07 12:08:40;;;;;;;1.13;0.40;;;;;;;;;;4975812;28;20469;-76
2023/01/07 12:11:09;;;;;;;1.60;0.70;;;;;;;;;;4997408;28;20032;-77
2023/01/07 12:13:35;;;;;;;1.50;0.95;;;;;;;;;;5009796;28;20524;-77
2023/01/07 12:16:02;;;;;;;2.05;0.75;;;;;;;;;;5009627;28;20101;-77
2023/01/07 12:18:33;;;;;;;5.65;0.95;;;;;;;;;;5009641;28;20052;-76
2023/01/07 12:21:17;;;;;;;1.33;0.70;;;;;;;;;;5009275;28;20024;-76
2023/01/07 12:23:51;;;;;;;0.80;0.60;;;;;;;;;;5009234;28;20369;-77
2023/01/07 12:26:31;;;;;;;0.82;0.47;;;;;;;;;;5000577;28;20045;-76
2023/01/07 12:28:59;;;;;;;0.55;0.28;;;;;;;;;;4992953;28;20536;-77
2023/01/07 12:31:33;;;;;;;1.92;0.52;;;;;;;;;;4996679;28;20091;-77
2023/01/07 12:34:09;;;;;;;0.25;0.25;;;;;;;;;;5010122;28;20094;-76
2023/01/07 12:36:36;;;;;;;1.92;1.05;;;;;;;;;;5010659;28;20084;-77
2023/01/07 12:39:04;;;;;;;0.73;0.32;;;;;;;;;;5008626;28;20030;-77
2023/01/07 12:41:33;;;;;;;0.47;0.30;;;;;;;;;;5010828;28;20060;-77
2023/01/07 12:44:03;;;;;;;0.82;0.70;;;;;;;;;;5009791;28;20184;-77
2023/01/07 12:46:36;;;;;;;0.35;0.20;;;;;;;;;;4999912;28;20082;-76
2023/01/07 12:49:22;;;;;;;0.28;0.25;;;;;;;;;;4997073;28;20026;-77
2023/01/07 12:51:51;;;;;;;3.63;0.80;;;;;;;;;;5010801;28;20057;-77
2023/01/07 12:54:26;;;;;;;0.10;0.10;;;;;;;;;;5008649;28;20034;-76
2023/01/07 12:57:01;;;;;;;2.13;0.65;;;;;;;;;;5012913;28;20377;-77
2023/01/07 12:59:29;;;;;;;0.60;0.40;;;;;;;;;;5011588;28;20029;-76
2023/01/07 13:01:59;;;;;;;2.38;0.60;;;;;;;;;;4995514;28;20048;-77
2023/01/07 13:04:27;;;;;;;0.38;0.22;;;;;;;;;;5013563;28;20040;-77
2023/01/07 13:07:13;;;;;;;2.00;0.70;;;;;;;;;;4996409;28;20092;-77
2023/01/07 13:09:46;;;;;;;0.70;0.35;;;;;;;;;;4992324;28;20681;-77
2023/01/07 13:12:43;;;;;;;0.32;0.20;;;;;;;;;;4996964;28;20072;-78
2023/01/07 13:15:19;;;;;;;0.28;0.20;;;;;;;;;;4996508;28;20771;-77
2023/01/07 13:17:44;;;;;;;0.10;0.10;;;;;;;;;;4997085;28;20030;-77
2023/01/07 13:20:13;;;;;;;0.93;0.43;;;;;;;;;;5013262;28;20033;-77
2023/01/07 13:22:39;;;;;;;2.53;1.20;;;;;;;;;;5014625;28;20030;-77
2023/01/07 13:25:22;;;;;;;3.60;0.77;;;;;;;;;;5014320;28;20025;-77
2023/01/07 13:27:48;;;;;;;1.55;0.45;;;;;;;;;;5013357;28;20192;-77
2023/01/07 13:30:32;;;;;;;0.57;0.40;;;;;;;;;;5014247;28;20049;-77
2023/01/07 13:33:03;;;;;;;1.15;0.80;;;;;;;;;;5014340;28;20033;-77
2023/01/07 13:35:42;;;;;;;0.47;0.40;;;;;;;;;;5011924;28;20052;-77
2023/01/07 13:38:28;;;;;;;1.17;0.17;;;;;;;;;;5013985;28;20384;-77
2023/01/07 13:41:08;;;;;;;0.98;0.60;;;;;;;;;;4992351;28;20060;-77
2023/01/07 13:43:39;;;;;;;3.47;0.30;;;;;;;;;;5013158;28;20123;-77
2023/01/07 13:46:10;;;;;;;1.13;0.70;;;;;;;;;;5001475;28;20044;-77
2023/01/07 13:48:37;;;;;;;0.20;0.20;;;;;;;;;;5010466;28;20100;-77
2023/01/07 13:51:09;;;;;;;1.15;0.25;;;;;;;;;;4994392;28;20129;-77
2023/01/07 13:53:38;;;;;;;0.82;0.55;;;;;;;;;;5013854;28;20029;-77
2023/01/07 13:56:16;;;;;;;1.15;0.65;;;;;;;;;;5013325;28;20028;-77
2023/01/07 13:58:45;;;;;;;1.83;0.80;;;;;;;;;;5013764;28;20108;-77
2023/01/07 14:01:11;;;;;;;1.75;0.85;;;;;;;;;;4994883;28;20156;-77
2023/01/07 14:03:42;;;;;;;0.98;0.40;;;;;;;;;;4995308;28;20022;-77
2023/01/07 14:06:28;;;;;;;1.52;0.60;;;;;;;;;;5010807;28;20044;-77
2023/01/07 14:09:05;;;;;;;0.43;0.38;;;;;;;;;;5005008;28;20041;-77
2023/01/07 14:11:40;;;;;;;0.22;0.15;;;;;;;;;;5010347;28;20117;-77
2023/01/07 14:14:15;;;;;;;1.13;0.57;;;;;;;;;;5003448;28;20026;-77
2023/01/07 14:16:43;;;;;;;1.67;1.05;;;;;;;;;;5000119;28;22009;-77
2023/01/07 14:19:17;;;;;;;0.88;0.60;;;;;;;;;;5012919;28;20083;-77
2023/01/07 14:22:01;;;;;;;0.98;0.50;;;;;;;;;;4995237;28;20029;-77
2023/01/07 14:24:43;;;;;;;0.20;0.20;;;;;;;;;;4995339;28;20026;-77
2023/01/07 14:27:17;;;;;;;0.08;0.08;;;;;;;;;;5003438;28;20087;-77
2023/01/07 14:29:47;;;;;;;1.60;0.85;;;;;;;;;;5000023;28;20045;-77
2023/01/07 14:32:31;;;;;;;1.60;1.23;;;;;;;;;;4996714;28;20079;-77
2023/01/07 14:35:03;;;;;;;1.63;1.27;;;;;;;;;;4998461;28;20409;-77
2023/01/07 14:37:29;;;;;;;0.90;0.52;;;;;;;;;;5008782;28;20109;-77
2023/01/07 14:39:55;;;;;;;2.33;1.10;;;;;;;;;;5003933;28;20088;-77
2023/01/07 14:42:20;;;;;;;2.10;0.90;;;;;;;;;;4995097;28;20065;-77
2023/01/07 14:44:45;;;;;;;2.13;1.33;;;;;;;;;;5011518;28;20025;-77
2023/01/07 14:47:11;;;;;;;2.35;1.23;;;;;;;;;;5010428;28;20385;-77
2023/01/07 14:49:55;;;;;;;1.55;0.90;;;;;;;;;;5011449;28;20104;-77
2023/01/07 14:52:36;;;;;;;3.13;1.60;;;;;;;;;;5008157;28;20074;-77
2023/01/07 14:55:01;;;;;;;2.22;1.00;;;;;;;;;;5012707;28;20041;-77